createdAt,value
2022-08-14T00:00:32.239Z,2.90
2022-08-14T00:03:38.506Z,2.88
2022-08-14T00:06:45.522Z,3.25
2022-08-14T00:10:01.949Z,3.05
2022-08-14T00:13:28.711Z,3.08
2022-08-14T00:16:41.434Z,2.85
2022-08-14T00:19:49.449Z,3.15
2022-08-14T00:22:58.456Z,3.03
2022-08-14T00:26:06.576Z,3.00
2022-08-14T00:29:12.821Z,3.42
2022-08-14T00:32:50.621Z,3.08
2022-08-14T00:36:33.793Z,3.15
2022-08-14T00:39:09.338Z,3.25
2022-08-14T00:42:21.321Z,3.30
2022-08-14T00:45:39.248Z,3.35
2022-08-14T00:48:49.177Z,3.17
2022-08-14T00:51:53.730Z,3.63
2022-08-14T00:54:59.162Z,3.88
2022-08-14T00:58:32.660Z,3.28
2022-08-14T01:01:39.161Z,3.28
2022-08-14T01:04:53.543Z,3.42
2022-08-14T01:07:59.841Z,3.08
2022-08-14T01:11:06.262Z,3.58
2022-08-14T01:14:25.810Z,3.30
2022-08-14T01:17:52.354Z,3.03
2022-08-14T01:24:11.021Z,2.80
2022-08-14T01:27:22.397Z,3.47
2022-08-14T01:33:59.101Z,2.97
2022-08-14T01:37:10.978Z,3.08
2022-08-14T01:40:20.091Z,2.90
2022-08-14T01:43:30.974Z,3.45
2022-08-14T01:46:47.082Z,2.97
2022-08-14T01:50:02.827Z,3.25
2022-08-14T01:53:08.361Z,3.22
2022-08-14T01:56:18.143Z,3.38
2022-08-14T01:59:38.053Z,3.53
2022-08-14T02:02:43.497Z,3.00
2022-08-14T02:05:51.304Z,3.00
2022-08-14T02:08:55.598Z,3.88
2022-08-14T02:12:04.491Z,3.33
2022-08-14T02:15:15.313Z,3.47
2022-08-14T02:18:20.310Z,3.40
2022-08-14T02:21:26.388Z,3.42
2022-08-14T02:24:38.854Z,3.35
2022-08-14T02:28:24.312Z,2.83
2022-08-14T02:31:14.834Z,3.72
2022-08-14T02:34:29.217Z,2.97
2022-08-14T02:37:47.256Z,3.58
2022-08-14T02:40:53.558Z,3.10
2022-08-14T02:44:00.681Z,3.47
2022-08-14T02:47:15.064Z,3.50
2022-08-14T02:50:27.159Z,3.30
2022-08-14T02:53:33.459Z,3.88
2022-08-14T02:57:15.615Z,3.97
2022-08-14T03:00:09.908Z,2.80
2022-08-14T03:03:16.930Z,3.40
2022-08-14T03:06:35.149Z,3.80
2022-08-14T03:10:27.710Z,3.10
2022-08-14T03:13:13.748Z,3.17
2022-08-14T03:16:26.917Z,3.42
2022-08-14T03:19:32.143Z,3.33
2022-08-14T03:22:37.035Z,3.58
2022-08-14T03:25:44.237Z,3.55
2022-08-14T03:28:51.798Z,3.70
2022-08-14T03:31:57.223Z,3.60
2022-08-14T03:35:02.336Z,3.42
2022-08-14T03:39:13.949Z,3.65
2022-08-14T03:41:38.897Z,3.47
2022-08-14T03:45:19.740Z,3.72
2022-08-14T03:48:31.447Z,3.50
2022-08-14T03:51:44.098Z,3.42
2022-08-14T03:54:52.656Z,4.05
2022-08-14T03:58:00.513Z,4.05
2022-08-14T04:01:06.516Z,3.88
2022-08-14T04:04:11.195Z,3.42
2022-08-14T04:07:17.239Z,4.03
2022-08-14T04:10:26.228Z,3.70
2022-08-14T04:13:41.411Z,3.53
2022-08-14T04:16:48.053Z,3.97
2022-08-14T04:19:52.931Z,3.90
2022-08-14T04:22:57.521Z,3.47
2022-08-14T04:26:05.052Z,3.70
2022-08-14T04:29:14.311Z,3.65
2022-08-14T04:33:00.066Z,4.00
2022-08-14T04:35:56.029Z,4.55
2022-08-14T04:39:19.767Z,4.10
2022-08-14T04:42:47.517Z,3.67
2022-08-14T04:45:56.322Z,3.70
2022-08-14T04:49:03.603Z,4.03
2022-08-14T04:52:15.453Z,4.00
2022-08-14T04:55:23.649Z,4.07
2022-08-14T04:58:34.124Z,3.55
2022-08-14T05:01:49.734Z,3.70
2022-08-14T05:04:58.539Z,4.03
2022-08-14T05:08:12.159Z,3.95
2022-08-14T05:11:36.924Z,4.15
2022-08-14T05:14:46.102Z,4.40
2022-08-14T05:18:03.558Z,3.67
2022-08-14T05:21:59.859Z,4.10
2022-08-14T05:24:50.306Z,3.78
2022-08-14T05:27:57.393Z,3.70
2022-08-14T05:31:06.819Z,3.78
2022-08-14T05:34:11.890Z,3.38
2022-08-14T05:37:16.516Z,4.53
2022-08-14T05:40:21.378Z,4.00
2022-08-14T05:43:40.901Z,4.00
2022-08-14T05:46:46.759Z,3.85
2022-08-14T05:49:51.784Z,4.00
2022-08-14T05:52:56.980Z,3.95
2022-08-14T05:56:01.625Z,3.90
2022-08-14T05:59:07.611Z,4.03
2022-08-14T06:02:12.090Z,3.72
2022-08-14T06:05:17.113Z,3.80
2022-08-14T06:08:41.264Z,4.07
2022-08-14T06:11:49.704Z,3.80
2022-08-14T06:14:54.487Z,3.95
2022-08-14T06:18:00.636Z,3.95
2022-08-14T06:21:12.974Z,4.05
2022-08-14T06:24:19.254Z,4.18
2022-08-14T06:27:23.812Z,3.90
2022-08-14T06:30:46.289Z,4.10
2022-08-14T06:35:03.398Z,4.20
2022-08-14T06:37:18.738Z,3.38
2022-08-14T06:40:34.377Z,3.90
2022-08-14T06:43:39.137Z,4.28
2022-08-14T06:46:49.929Z,4.20
2022-08-14T06:49:57.817Z,4.82
2022-08-14T06:53:02.992Z,3.75
2022-08-14T06:56:07.647Z,4.15
2022-08-14T06:59:19.980Z,3.92
2022-08-14T07:02:43.660Z,4.70
2022-08-14T07:05:57.715Z,3.75
2022-08-14T07:09:05.071Z,4.05
2022-08-14T07:12:09.915Z,4.30
2022-08-14T07:15:39.577Z,4.13
2022-08-14T07:18:46.785Z,4.22
2022-08-14T07:21:56.677Z,4.25
2022-08-14T07:25:01.023Z,4.93
2022-08-14T07:28:25.751Z,4.40
2022-08-14T07:34:36.184Z,4.40
2022-08-14T07:37:48.916Z,3.97
2022-08-14T07:40:59.590Z,4.40
2022-08-14T07:44:28.887Z,4.55
2022-08-14T07:47:29.064Z,4.38
2022-08-14T07:50:37.206Z,4.47
2022-08-14T07:53:42.340Z,4.60
2022-08-14T07:56:49.940Z,4.70
2022-08-14T07:59:55.128Z,4.63
2022-08-14T08:03:00.647Z,4.50
2022-08-14T08:06:10.613Z,4.38
2022-08-14T08:09:31.997Z,4.68
2022-08-14T08:12:37.792Z,3.95
2022-08-14T08:15:50.273Z,4.07
2022-08-14T08:18:58.288Z,3.85
2022-08-14T08:22:08.669Z,3.85
2022-08-14T08:25:18.050Z,4.00
2022-08-14T08:28:31.352Z,4.10
2022-08-14T08:31:52.073Z,3.85
2022-08-14T08:34:56.865Z,3.33
2022-08-14T08:38:14.269Z,3.50
2022-08-14T08:41:45.131Z,3.25
2022-08-14T08:44:57.236Z,3.30
2022-08-14T08:48:03.836Z,2.80
2022-08-14T08:51:34.525Z,3.13
2022-08-14T08:54:39.394Z,2.95
2022-08-14T08:57:44.355Z,3.10
2022-08-14T09:00:54.397Z,2.85
2022-08-14T09:04:04.152Z,2.92
2022-08-14T09:07:13.663Z,2.85
2022-08-14T09:10:21.931Z,2.83
2022-08-14T09:13:27.841Z,2.80
2022-08-14T09:16:35.429Z,3.13
2022-08-14T09:19:40.876Z,2.88
2022-08-14T09:22:48.520Z,3.00
2022-08-14T09:26:01.371Z,2.60
2022-08-14T09:29:07.869Z,3.22
2022-08-14T09:32:59.322Z,3.35
2022-08-14T09:36:30.475Z,3.13
2022-08-14T09:40:16.727Z,3.13
2022-08-14T09:43:58.549Z,2.85
2022-08-14T09:47:05.074Z,2.42
2022-08-14T09:50:30.639Z,3.10
2022-08-14T09:54:19.164Z,3.05
2022-08-14T09:57:31.316Z,2.80
2022-08-14T10:00:46.454Z,2.90
2022-08-14T10:03:56.452Z,2.92
2022-08-14T10:07:08.540Z,2.78
2022-08-14T10:10:23.099Z,2.63
2022-08-14T10:13:28.577Z,2.70
2022-08-14T10:16:54.633Z,2.60
2022-08-14T10:19:59.004Z,2.75
2022-08-14T10:23:19.009Z,2.97
2022-08-14T10:26:28.376Z,2.80
2022-08-14T10:29:40.981Z,2.58
2022-08-14T10:32:51.225Z,2.85
2022-08-14T10:36:00.572Z,2.78
2022-08-14T10:39:08.813Z,3.10
2022-08-14T10:42:20.915Z,3.30
2022-08-14T10:45:35.463Z,3.05
2022-08-14T10:48:43.408Z,3.03
2022-08-14T10:51:56.264Z,3.10
2022-08-14T10:55:16.085Z,3.03
2022-08-14T10:58:35.015Z,3.13
2022-08-14T11:01:41.316Z,3.30
2022-08-14T11:05:03.768Z,3.00
2022-08-14T11:08:12.647Z,3.03
2022-08-14T11:11:19.310Z,3.20
2022-08-14T11:14:26.611Z,3.03
2022-08-14T11:17:33.130Z,3.10
2022-08-14T11:20:38.869Z,3.50
2022-08-14T11:23:45.908Z,3.10
2022-08-14T11:26:51.736Z,3.15
2022-08-14T11:30:48.918Z,3.65
2022-08-14T11:33:37.651Z,3.30
2022-08-14T11:37:02.188Z,2.95
2022-08-14T11:40:24.201Z,3.65
2022-08-14T11:43:40.221Z,3.53
2022-08-14T11:46:46.110Z,3.88
2022-08-14T11:49:51.985Z,3.97
2022-08-14T11:53:02.405Z,3.63
2022-08-14T11:56:11.169Z,3.38
2022-08-14T11:59:19.662Z,3.50
2022-08-14T12:03:00.992Z,3.67
2022-08-14T12:06:18.073Z,3.30
2022-08-14T12:09:37.403Z,3.22
2022-08-14T12:12:42.296Z,3.22
2022-08-14T12:16:06.484Z,3.20
2022-08-14T12:19:19.908Z,3.08
2022-08-14T12:22:45.784Z,3.45
2022-08-14T12:26:38.941Z,2.72
2022-08-14T12:29:53.526Z,3.13
2022-08-14T12:32:58.590Z,3.38
2022-08-14T12:36:10.586Z,3.00
2022-08-14T12:39:23.869Z,3.47
2022-08-14T12:42:38.737Z,3.03
2022-08-14T12:45:54.988Z,3.20
2022-08-14T12:49:15.965Z,3.55
2022-08-14T12:52:56.042Z,3.25
2022-08-14T12:56:22.513Z,3.20
2022-08-14T12:59:36.914Z,3.08
2022-08-14T13:02:55.211Z,3.35
2022-08-14T13:06:01.242Z,2.95
2022-08-14T13:09:11.331Z,2.50
2022-08-14T13:12:32.391Z,2.95
2022-08-14T13:15:47.562Z,3.20
2022-08-14T13:18:57.423Z,3.17
2022-08-14T13:22:10.237Z,2.85
2022-08-14T13:25:29.423Z,2.67
2022-08-14T13:29:00.527Z,3.17
2022-08-14T13:32:05.534Z,3.08
2022-08-14T13:35:17.527Z,3.13
2022-08-14T13:38:22.938Z,3.53
2022-08-14T13:41:34.668Z,3.63
2022-08-14T13:44:42.839Z,3.50
2022-08-14T13:47:48.404Z,3.05
2022-08-14T13:50:59.258Z,3.25
2022-08-14T13:54:11.101Z,3.30
2022-08-14T13:57:17.782Z,3.10
2022-08-14T14:00:33.079Z,3.17
2022-08-14T14:03:47.224Z,3.17
2022-08-14T14:06:52.206Z,3.10
2022-08-14T14:10:06.242Z,3.60
2022-08-14T14:13:13.916Z,2.90
2022-08-14T14:16:30.160Z,2.90
2022-08-14T14:19:35.868Z,2.83
2022-08-14T14:23:01.554Z,2.53
2022-08-14T14:26:08.030Z,2.92
2022-08-14T14:29:24.228Z,2.45
2022-08-14T14:32:32.356Z,2.60
2022-08-14T14:35:39.768Z,2.53
2022-08-14T14:38:45.746Z,3.00
2022-08-14T14:41:56.824Z,2.42
2022-08-14T14:45:18.050Z,2.75
2022-08-14T14:48:28.350Z,2.63
2022-08-14T14:51:33.303Z,2.70
2022-08-14T14:54:39.279Z,2.47
2022-08-14T14:57:52.256Z,2.55
2022-08-14T15:01:03.477Z,2.50
2022-08-14T15:04:20.017Z,2.70
2022-08-14T15:07:25.276Z,2.63
2022-08-14T15:10:39.859Z,2.72
2022-08-14T15:13:52.954Z,2.88
2022-08-14T15:16:59.212Z,2.50
2022-08-14T15:20:09.794Z,3.10
2022-08-14T15:23:22.923Z,2.65
2022-08-14T15:26:31.984Z,2.67
2022-08-14T15:29:38.712Z,2.90
2022-08-14T15:32:47.511Z,2.63
2022-08-14T15:35:52.176Z,2.80
2022-08-14T15:39:05.030Z,2.63
2022-08-14T15:42:15.643Z,3.05
2022-08-14T15:45:22.807Z,2.45
2022-08-14T15:48:47.232Z,2.53
2022-08-14T15:51:51.747Z,2.38
2022-08-14T15:54:58.061Z,3.15
2022-08-14T15:58:05.879Z,2.35
2022-08-14T16:01:43.332Z,2.53
2022-08-14T16:04:50.564Z,2.65
2022-08-14T16:07:57.081Z,2.85
2022-08-14T16:11:06.964Z,2.42
2022-08-14T16:14:11.730Z,2.72
2022-08-14T16:17:17.400Z,2.75
2022-08-14T16:20:41.626Z,2.88
2022-08-14T16:23:48.649Z,2.50
2022-08-14T16:27:00.982Z,2.65
2022-08-14T16:30:10.967Z,2.75
2022-08-14T16:33:27.858Z,2.75
2022-08-14T16:36:50.737Z,2.60
2022-08-14T16:39:57.497Z,2.80
2022-08-14T16:43:12.901Z,2.63
2022-08-14T16:46:22.205Z,2.50
2022-08-14T16:49:50.485Z,2.75
2022-08-14T16:52:55.777Z,2.63
2022-08-14T16:56:22.881Z,2.72
2022-08-14T16:59:30.567Z,2.38
2022-08-14T17:03:11.671Z,2.60
2022-08-14T17:06:38.999Z,2.28
2022-08-14T17:09:49.013Z,2.63
2022-08-14T17:13:59.665Z,2.30
2022-08-14T17:16:59.358Z,2.60
2022-08-14T17:20:39.801Z,2.50
2022-08-14T17:23:44.557Z,2.40
2022-08-14T17:26:55.247Z,2.33
2022-08-14T17:30:00.172Z,2.80
2022-08-14T17:33:18.310Z,2.58
2022-08-14T17:36:29.149Z,2.97
2022-08-14T17:39:39.893Z,2.53
2022-08-14T17:42:55.508Z,2.70
2022-08-14T17:46:06.375Z,2.53
2022-08-14T17:49:18.582Z,2.63
2022-08-14T17:52:34.285Z,2.80
2022-08-14T17:56:02.287Z,2.65
2022-08-14T17:59:07.667Z,2.55
2022-08-14T18:02:16.810Z,2.80
2022-08-14T18:06:07.359Z,2.78
2022-08-14T18:08:48.801Z,3.20
2022-08-14T18:12:03.677Z,2.63
2022-08-14T18:15:16.719Z,2.92
2022-08-14T18:18:22.629Z,3.15
2022-08-14T18:21:41.988Z,2.90
2022-08-14T18:24:53.088Z,3.15
2022-08-14T18:28:00.228Z,3.05
2022-08-14T18:31:42.157Z,2.80
2022-08-14T18:34:51.119Z,2.92
2022-08-14T18:38:26.315Z,2.95
2022-08-14T18:41:49.592Z,2.57
2022-08-14T18:44:54.351Z,3.20
2022-08-14T18:48:18.594Z,2.78
2022-08-14T18:51:45.398Z,2.80
2022-08-14T18:54:59.072Z,2.92
2022-08-14T18:58:07.733Z,2.67
2022-08-14T19:01:30.889Z,3.60
2022-08-14T19:04:37.336Z,3.25
2022-08-14T19:07:43.511Z,2.97
2022-08-14T19:11:05.556Z,2.70
2022-08-14T19:14:14.249Z,3.00
2022-08-14T19:18:14.179Z,3.50
2022-08-14T19:21:39.970Z,3.58
2022-08-14T19:24:45.366Z,3.00
2022-08-14T19:28:31.694Z,2.85
2022-08-14T19:31:42.246Z,3.05
2022-08-14T19:34:52.513Z,3.53
2022-08-14T19:37:57.622Z,3.35
2022-08-14T19:41:19.216Z,3.28
2022-08-14T19:44:32.074Z,3.30
2022-08-14T19:47:41.174Z,3.50
2022-08-14T19:50:46.933Z,3.50
2022-08-14T19:54:06.460Z,3.70
2022-08-14T19:57:29.180Z,3.15
2022-08-14T20:00:34.555Z,3.53
2022-08-14T20:07:08.989Z,2.95
2022-08-14T20:11:11.298Z,3.13
2022-08-14T20:14:20.848Z,3.30
2022-08-14T20:17:33.275Z,3.13
2022-08-14T20:20:46.304Z,3.00
2022-08-14T20:24:30.522Z,3.25
2022-08-14T20:27:40.015Z,3.65
2022-08-14T20:30:45.243Z,3.45
2022-08-14T20:34:24.715Z,3.50
2022-08-14T20:37:37.178Z,3.40
2022-08-14T20:40:50.476Z,3.10
2022-08-14T20:44:20.758Z,3.30
2022-08-14T20:47:25.788Z,3.38
2022-08-14T20:50:51.765Z,3.15
2022-08-14T20:53:59.461Z,4.13
2022-08-14T20:57:14.719Z,3.60
2022-08-14T21:01:03.653Z,3.53
2022-08-14T21:04:36.239Z,3.47
2022-08-14T21:07:52.799Z,2.95
2022-08-14T21:11:02.223Z,3.70
2022-08-14T21:14:19.453Z,3.55
2022-08-14T21:17:31.186Z,3.17
2022-08-14T21:20:37.488Z,3.55
2022-08-14T21:23:54.757Z,3.30
2022-08-14T21:27:12.136Z,3.05
2022-08-14T21:30:20.843Z,3.40
2022-08-14T21:33:26.667Z,3.03
2022-08-14T21:36:33.058Z,3.00
2022-08-14T21:39:39.587Z,3.47
2022-08-14T21:42:45.948Z,3.20
2022-08-14T21:45:56.192Z,3.50
2022-08-14T21:49:13.410Z,3.45
2022-08-14T21:52:51.863Z,3.72
2022-08-14T21:55:46.608Z,3.30
2022-08-14T21:58:56.460Z,3.13
2022-08-14T22:02:04.051Z,3.60
2022-08-14T22:05:11.729Z,3.47
2022-08-14T22:08:17.371Z,3.20
2022-08-14T22:11:24.152Z,3.35
2022-08-14T22:14:29.805Z,3.65
2022-08-14T22:17:34.813Z,3.30
2022-08-14T22:20:41.260Z,3.72
2022-08-14T22:23:46.427Z,3.33
2022-08-14T22:26:51.169Z,3.08
2022-08-14T22:29:58.388Z,3.63
2022-08-14T22:33:05.911Z,3.80
2022-08-14T22:36:42.276Z,3.35
2022-08-14T22:40:48.327Z,3.45
2022-08-14T22:43:15.875Z,3.38
2022-08-14T22:46:21.149Z,3.08
2022-08-14T22:50:30.059Z,3.30
2022-08-14T22:52:55.612Z,3.20
2022-08-14T22:56:01.181Z,3.30
2022-08-14T22:59:10.053Z,3.83
2022-08-14T23:02:30.250Z,3.30
2022-08-14T23:05:40.100Z,3.50
2022-08-14T23:09:34.897Z,3.05
2022-08-14T23:12:28.274Z,3.15
2022-08-14T23:15:37.562Z,3.15
2022-08-14T23:18:43.358Z,2.97
2022-08-14T23:21:51.108Z,3.33
2022-08-14T23:24:56.798Z,3.10
2022-08-14T23:28:04.931Z,3.25
2022-08-14T23:31:15.732Z,3.08
2022-08-14T23:34:41.231Z,2.90
2022-08-14T23:38:01.678Z,3.20
2022-08-14T23:44:17.069Z,2.72
2022-08-14T23:47:26.509Z,2.83
2022-08-14T23:50:38.345Z,2.97
2022-08-14T23:53:47.346Z,2.83
2022-08-14T23:57:02.679Z,3.30
